createdAt,value
2023-05-22T00:01:46.657Z,30.67
2023-05-22T00:04:13.895Z,34.25
2023-05-22T00:06:43.747Z,36.25
2023-05-22T00:09:10.453Z,32.03
2023-05-22T00:11:37.241Z,33.80
2023-05-22T00:14:03.955Z,33.08
2023-05-22T00:16:30.772Z,29.13
2023-05-22T00:18:57.859Z,31.73
2023-05-22T00:21:25.003Z,32.60
2023-05-22T00:23:51.698Z,31.25
2023-05-22T00:26:18.383Z,32.33
2023-05-22T00:28:45.244Z,33.35
2023-05-22T00:31:11.975Z,39.40
2023-05-22T00:33:38.730Z,35.33
2023-05-22T00:36:05.916Z,39.03
2023-05-22T00:38:34.699Z,32.00
2023-05-22T00:41:02.544Z,30.38
2023-05-22T00:43:29.452Z,33.15
2023-05-22T00:45:56.612Z,38.92
2023-05-22T00:48:24.104Z,35.60
2023-05-22T00:50:52.083Z,38.85
2023-05-22T00:53:24.169Z,38.35
2023-05-22T00:55:54.920Z,41.53
2023-05-22T00:58:22.280Z,40.45
2023-05-22T01:00:49.268Z,35.65
2023-05-22T01:03:17.410Z,40.50
2023-05-22T01:05:45.187Z,38.25
2023-05-22T01:08:12.484Z,43.10
2023-05-22T01:10:40.963Z,42.28
2023-05-22T01:13:43.303Z,38.35
2023-05-22T01:16:39.569Z,36.07
2023-05-22T01:19:26.757Z,34.53
2023-05-22T01:21:56.220Z,37.90
2023-05-22T01:24:56.928Z,36.15
2023-05-22T01:27:45.803Z,33.67
2023-05-22T01:30:18.113Z,31.30
2023-05-22T01:32:47.793Z,37.38
2023-05-22T01:35:20.179Z,33.25
2023-05-22T01:37:49.223Z,36.40
2023-05-22T01:40:17.038Z,36.50
2023-05-22T01:42:44.000Z,34.15
2023-05-22T01:45:11.848Z,37.80
2023-05-22T01:47:39.042Z,32.45
2023-05-22T01:50:06.643Z,34.17
2023-05-22T01:52:58.877Z,40.47
2023-05-22T01:55:45.293Z,40.13
2023-05-22T01:58:38.212Z,39.88
2023-05-22T02:01:10.028Z,38.22
2023-05-22T02:03:39.507Z,36.10
2023-05-22T02:06:08.739Z,34.42
2023-05-22T02:08:40.551Z,37.42
2023-05-22T02:11:11.049Z,35.78
2023-05-22T02:13:38.354Z,36.20
2023-05-22T02:16:06.323Z,36.53
2023-05-22T02:18:33.629Z,34.42
2023-05-22T02:21:01.111Z,32.60
2023-05-22T02:23:29.571Z,40.83
2023-05-22T02:25:56.551Z,36.63
2023-05-22T02:28:24.215Z,34.80
2023-05-22T02:30:51.166Z,39.15
2023-05-22T02:33:19.061Z,37.03
2023-05-22T02:35:46.190Z,43.20
2023-05-22T02:38:13.126Z,36.58
2023-05-22T02:40:40.468Z,37.05
2023-05-22T02:43:07.507Z,35.45
2023-05-22T02:45:36.439Z,33.03
2023-05-22T02:48:03.805Z,34.97
2023-05-22T02:50:31.894Z,39.03
2023-05-22T02:52:58.587Z,35.47
2023-05-22T02:55:25.445Z,35.45
2023-05-22T02:57:52.130Z,36.15
2023-05-22T03:00:19.560Z,33.75
2023-05-22T03:02:46.382Z,35.17
2023-05-22T03:05:17.356Z,36.47
2023-05-22T03:07:48.144Z,34.25
2023-05-22T03:10:15.418Z,36.70
2023-05-22T03:12:42.267Z,37.85
2023-05-22T03:15:11.011Z,37.28
2023-05-22T03:17:40.000Z,37.28
2023-05-22T03:20:08.590Z,39.58
2023-05-22T03:22:35.473Z,37.50
2023-05-22T03:25:02.363Z,41.38
2023-05-22T03:27:29.877Z,35.53
2023-05-22T03:29:56.802Z,39.13
2023-05-22T03:32:24.000Z,35.25
2023-05-22T03:34:51.015Z,37.88
2023-05-22T03:37:17.775Z,42.13
2023-05-22T03:39:44.767Z,37.80
2023-05-22T03:42:24.190Z,44.90
2023-05-22T03:44:51.296Z,37.67
2023-05-22T03:47:19.116Z,38.13
2023-05-22T03:49:46.243Z,35.50
2023-05-22T03:52:13.044Z,33.90
2023-05-22T03:54:39.870Z,39.30
2023-05-22T03:57:06.948Z,37.83
2023-05-22T03:59:33.654Z,39.00
2023-05-22T04:02:01.350Z,37.90
2023-05-22T04:04:28.559Z,42.47
2023-05-22T04:06:57.945Z,38.67
2023-05-22T04:09:27.719Z,37.38
2023-05-22T04:11:56.466Z,38.13
2023-05-22T04:14:23.199Z,39.95
2023-05-22T04:16:50.499Z,42.10
2023-05-22T04:19:18.125Z,41.58
2023-05-22T04:21:46.448Z,39.53
2023-05-22T04:24:13.357Z,40.15
2023-05-22T04:26:42.363Z,42.70
2023-05-22T04:29:10.500Z,45.42
2023-05-22T04:31:37.508Z,45.13
2023-05-22T04:34:05.285Z,44.55
2023-05-22T04:36:32.019Z,37.70
2023-05-22T04:39:00.328Z,41.15
2023-05-22T04:41:27.084Z,42.22
2023-05-22T04:43:54.518Z,45.67
2023-05-22T04:46:21.331Z,41.15
2023-05-22T04:48:48.250Z,39.72
2023-05-22T04:51:15.824Z,45.13
2023-05-22T04:53:42.783Z,42.83
2023-05-22T04:56:10.006Z,40.10
2023-05-22T04:58:38.479Z,35.67
2023-05-22T05:01:06.119Z,41.33
2023-05-22T05:03:33.993Z,40.53
2023-05-22T05:06:00.674Z,44.10
2023-05-22T05:08:27.641Z,40.45
2023-05-22T05:10:55.489Z,40.03
2023-05-22T05:13:23.063Z,41.13
2023-05-22T05:15:50.063Z,40.08
2023-05-22T05:18:17.550Z,39.47
2023-05-22T05:20:44.398Z,46.88
2023-05-22T05:23:11.236Z,40.15
2023-05-22T05:25:38.749Z,35.20
2023-05-22T05:28:10.800Z,35.60
2023-05-22T05:30:39.621Z,40.42
2023-05-22T05:33:25.448Z,37.60
2023-05-22T05:36:03.762Z,37.13
2023-05-22T05:38:32.058Z,35.95
2023-05-22T05:40:59.236Z,35.72
2023-05-22T05:43:27.452Z,35.65
2023-05-22T05:45:58.963Z,35.08
2023-05-22T05:48:25.776Z,33.75
2023-05-22T05:50:52.648Z,32.58
2023-05-22T05:53:19.604Z,36.15
2023-05-22T05:55:54.490Z,41.45
2023-05-22T05:58:21.825Z,33.60
2023-05-22T06:01:01.153Z,31.52
2023-05-22T06:03:28.097Z,36.28
2023-05-22T06:06:14.268Z,34.28
2023-05-22T06:08:59.550Z,34.63
2023-05-22T06:11:34.981Z,36.15
2023-05-22T06:14:03.242Z,31.98
2023-05-22T06:16:30.340Z,31.13
2023-05-22T06:19:00.757Z,32.17
2023-05-22T06:21:27.786Z,31.35
2023-05-22T06:23:54.668Z,30.83
2023-05-22T06:26:22.356Z,32.55
2023-05-22T06:28:51.888Z,33.97
2023-05-22T06:31:20.079Z,26.95
2023-05-22T06:33:49.051Z,28.02
2023-05-22T06:36:16.163Z,30.33
2023-05-22T06:38:43.682Z,28.55
2023-05-22T06:41:26.145Z,29.20
2023-05-22T06:43:53.014Z,32.35
2023-05-22T06:46:26.856Z,31.70
2023-05-22T06:48:57.962Z,27.33
2023-05-22T06:51:26.714Z,30.73
2023-05-22T06:54:06.693Z,29.50
2023-05-22T06:56:33.615Z,26.85
2023-05-22T06:59:06.780Z,29.55
2023-05-22T07:01:56.417Z,27.52
2023-05-22T07:04:33.392Z,31.13
2023-05-22T07:07:03.457Z,27.05
2023-05-22T07:09:30.285Z,26.77
2023-05-22T07:11:57.061Z,32.47
2023-05-22T07:14:24.409Z,26.17
2023-05-22T07:16:51.791Z,28.05
2023-05-22T07:19:25.663Z,25.65
2023-05-22T07:21:54.842Z,30.25
2023-05-22T07:24:22.243Z,27.00
2023-05-22T07:26:50.402Z,27.92
2023-05-22T07:29:17.656Z,24.75
2023-05-22T07:31:47.938Z,27.20
2023-05-22T07:34:14.789Z,27.63
2023-05-22T07:36:42.343Z,26.48
2023-05-22T07:39:09.640Z,32.78
2023-05-22T07:41:40.033Z,28.02
2023-05-22T07:44:09.016Z,27.55
2023-05-22T07:46:38.093Z,30.05
2023-05-22T07:49:19.452Z,27.60
2023-05-22T07:51:47.092Z,26.63
2023-05-22T07:54:15.608Z,32.90
2023-05-22T07:56:45.728Z,26.67
2023-05-22T07:59:13.461Z,33.53
2023-05-22T08:01:41.708Z,26.25
2023-05-22T08:04:09.078Z,24.90
2023-05-22T08:06:36.158Z,19.30
2023-05-22T08:09:04.621Z,22.48
2023-05-22T08:11:34.300Z,21.40
2023-05-22T08:14:01.090Z,20.35
2023-05-22T08:16:27.896Z,23.15
2023-05-22T08:18:54.800Z,27.35
2023-05-22T08:21:21.677Z,26.88
2023-05-22T08:23:48.493Z,24.65
2023-05-22T08:26:15.995Z,30.88
2023-05-22T08:28:44.294Z,24.88
2023-05-22T08:31:11.899Z,27.67
2023-05-22T08:33:39.727Z,29.13
2023-05-22T08:36:06.682Z,23.77
2023-05-22T08:38:33.664Z,24.83
2023-05-22T08:41:00.820Z,27.42
2023-05-22T08:43:28.555Z,25.45
2023-05-22T08:46:06.093Z,26.30
2023-05-22T08:48:33.670Z,23.75
2023-05-22T08:51:05.971Z,27.85
2023-05-22T08:53:36.238Z,26.85
2023-05-22T08:56:06.975Z,22.45
2023-05-22T08:58:35.960Z,26.17
2023-05-22T09:01:07.275Z,21.00
2023-05-22T09:03:36.773Z,25.83
2023-05-22T09:06:04.551Z,23.17
2023-05-22T09:08:31.330Z,23.55
2023-05-22T09:10:58.312Z,23.30
2023-05-22T09:13:31.963Z,28.25
2023-05-22T09:16:07.848Z,25.75
2023-05-22T09:18:35.198Z,22.10
2023-05-22T09:21:03.693Z,22.83
2023-05-22T09:23:33.779Z,24.48
2023-05-22T09:26:02.333Z,24.13
2023-05-22T09:28:36.593Z,21.35
2023-05-22T09:31:04.484Z,24.05
2023-05-22T09:33:32.249Z,26.55
2023-05-22T09:35:59.856Z,22.10
2023-05-22T09:38:30.824Z,25.75
2023-05-22T09:40:57.721Z,21.60
2023-05-22T09:43:25.605Z,21.52
2023-05-22T09:46:01.774Z,24.08
2023-05-22T09:48:28.811Z,20.92
2023-05-22T09:50:58.076Z,20.58
2023-05-22T09:53:30.545Z,23.08
2023-05-22T09:56:00.432Z,20.75
2023-05-22T09:58:30.775Z,23.33
2023-05-22T10:00:58.150Z,21.98
2023-05-22T10:03:26.704Z,24.08
2023-05-22T10:05:58.462Z,23.02
2023-05-22T10:08:27.961Z,20.95
2023-05-22T10:10:55.116Z,23.25
2023-05-22T10:13:22.012Z,26.73
2023-05-22T10:15:49.688Z,18.98
2023-05-22T10:18:17.393Z,19.38
2023-05-22T10:20:46.699Z,20.60
2023-05-22T10:23:15.328Z,24.58
2023-05-22T10:25:42.956Z,19.58
2023-05-22T10:28:10.708Z,19.63
2023-05-22T10:30:47.983Z,19.17
2023-05-22T10:33:52.635Z,19.52
2023-05-22T10:37:12.984Z,16.23
2023-05-22T10:39:47.898Z,18.25
2023-05-22T10:42:15.341Z,20.10
2023-05-22T10:44:43.205Z,21.92
2023-05-22T10:47:12.507Z,17.77
2023-05-22T10:49:45.483Z,19.50
2023-05-22T10:52:14.927Z,18.50
2023-05-22T10:54:46.103Z,20.85
2023-05-22T10:57:17.110Z,19.73
2023-05-22T10:59:47.088Z,20.48
2023-05-22T11:02:29.901Z,19.10
2023-05-22T11:05:19.743Z,18.38
2023-05-22T11:07:46.494Z,21.35
2023-05-22T11:10:13.343Z,17.25
2023-05-22T11:12:41.446Z,19.67
2023-05-22T11:15:09.988Z,16.60
2023-05-22T11:17:39.567Z,18.35
2023-05-22T11:20:13.668Z,24.45
2023-05-22T11:22:43.218Z,20.95
2023-05-22T11:25:20.626Z,26.00
2023-05-22T11:27:48.623Z,23.02
2023-05-22T11:30:16.373Z,20.50
2023-05-22T11:32:45.125Z,20.38
2023-05-22T11:35:17.213Z,21.20
2023-05-22T11:40:18.446Z,21.75
2023-05-22T11:42:45.577Z,17.92
2023-05-22T11:45:12.635Z,22.98
2023-05-22T11:47:39.938Z,30.00
2023-05-22T11:50:09.891Z,19.45
2023-05-22T11:52:38.567Z,18.13
2023-05-22T11:55:05.976Z,18.75
2023-05-22T11:57:32.770Z,20.75
2023-05-22T11:59:59.563Z,21.83
2023-05-22T12:02:26.845Z,16.05
2023-05-22T12:04:57.850Z,17.92
2023-05-22T12:07:26.466Z,22.00
2023-05-22T12:09:56.142Z,18.58
2023-05-22T12:12:22.971Z,17.75
2023-05-22T12:14:49.828Z,18.77
2023-05-22T12:17:17.562Z,18.10
2023-05-22T12:19:47.164Z,18.75
2023-05-22T12:22:14.595Z,22.08
2023-05-22T12:24:46.054Z,15.90
2023-05-22T12:27:13.875Z,14.43
2023-05-22T12:29:41.572Z,11.20
2023-05-22T12:32:11.129Z,10.23
2023-05-22T12:34:45.527Z,20.77
2023-05-22T12:37:24.869Z,12.23
2023-05-22T12:39:59.238Z,11.15
2023-05-22T12:42:26.857Z,12.70
2023-05-22T12:44:55.488Z,11.80
2023-05-22T12:47:23.727Z,14.73
2023-05-22T12:49:51.164Z,16.42
2023-05-22T12:52:18.228Z,13.07
2023-05-22T12:54:45.430Z,13.52
2023-05-22T12:57:12.116Z,13.40
2023-05-22T12:59:38.942Z,13.07
2023-05-22T13:02:06.072Z,13.45
2023-05-22T13:04:32.980Z,13.00
2023-05-22T13:06:59.795Z,12.50
2023-05-22T13:09:26.631Z,12.50
2023-05-22T13:11:53.500Z,14.65
2023-05-22T13:14:21.254Z,11.82
2023-05-22T13:16:48.019Z,11.32
2023-05-22T13:19:14.904Z,14.73
2023-05-22T13:21:43.037Z,11.32
2023-05-22T13:24:09.764Z,13.45
2023-05-22T13:26:36.459Z,13.27
2023-05-22T13:29:03.253Z,13.02
2023-05-22T13:31:31.395Z,12.35
2023-05-22T13:33:58.644Z,12.35
2023-05-22T13:36:26.260Z,12.63
2023-05-22T13:38:52.960Z,13.10
2023-05-22T13:41:19.734Z,10.38
2023-05-22T13:43:46.449Z,11.38
2023-05-22T13:46:13.298Z,12.57
2023-05-22T13:48:40.117Z,11.35
2023-05-22T13:51:07.050Z,12.43
2023-05-22T13:53:33.950Z,9.73
2023-05-22T13:56:01.925Z,10.25
2023-05-22T13:58:28.705Z,11.50
2023-05-22T14:00:55.785Z,12.35
2023-05-22T14:03:22.544Z,12.05
2023-05-22T14:05:49.340Z,11.38
2023-05-22T14:08:16.176Z,13.20
2023-05-22T14:10:43.059Z,10.45
2023-05-22T14:13:09.845Z,11.27
2023-05-22T14:15:36.608Z,14.88
2023-05-22T14:18:03.549Z,13.25
2023-05-22T14:20:30.312Z,11.35
2023-05-22T14:22:58.081Z,12.07
2023-05-22T14:25:27.955Z,11.20
2023-05-22T14:27:54.823Z,10.52
2023-05-22T14:30:21.652Z,12.30
2023-05-22T14:32:48.769Z,12.30
2023-05-22T14:35:16.691Z,11.85
2023-05-22T14:37:44.117Z,10.32
2023-05-22T14:40:11.321Z,12.55
2023-05-22T14:42:38.910Z,11.20
2023-05-22T14:45:05.971Z,12.32
2023-05-22T14:47:32.804Z,11.65
2023-05-22T14:50:10.243Z,12.20
2023-05-22T14:52:45.541Z,11.65
2023-05-22T14:55:12.225Z,10.80
2023-05-22T14:57:38.983Z,11.93
2023-05-22T15:00:06.498Z,11.32
2023-05-22T15:02:33.702Z,14.85
2023-05-22T15:05:00.852Z,16.70
2023-05-22T15:07:35.978Z,15.85
2023-05-22T15:10:09.919Z,15.65
2023-05-22T15:12:37.011Z,18.05
2023-05-22T15:15:04.104Z,17.30
2023-05-22T15:17:31.158Z,13.95
2023-05-22T15:19:57.870Z,19.45
2023-05-22T15:22:24.827Z,15.98
2023-05-22T15:25:04.881Z,14.48
2023-05-22T15:27:35.275Z,16.17
2023-05-22T15:30:03.554Z,15.73
2023-05-22T15:32:32.281Z,19.85
2023-05-22T15:34:59.196Z,17.08
2023-05-22T15:37:30.291Z,16.42
2023-05-22T15:40:03.395Z,21.02
2023-05-22T15:42:31.036Z,21.87
2023-05-22T15:44:59.714Z,24.08
2023-05-22T15:47:26.967Z,19.45
2023-05-22T15:49:54.076Z,24.35
2023-05-22T15:52:23.544Z,24.90
2023-05-22T15:54:50.465Z,23.48
2023-05-22T15:57:17.958Z,24.25
2023-05-22T15:59:47.043Z,21.02
2023-05-22T16:02:14.169Z,22.00
2023-05-22T16:04:40.942Z,20.70
2023-05-22T16:07:07.632Z,22.10
2023-05-22T16:09:35.984Z,23.13
2023-05-22T16:12:03.282Z,22.63
2023-05-22T16:14:30.468Z,19.20
2023-05-22T16:16:57.311Z,18.25
2023-05-22T16:19:24.382Z,18.35
2023-05-22T16:21:51.077Z,15.95
2023-05-22T16:24:17.936Z,15.20
2023-05-22T16:26:44.944Z,12.23
2023-05-22T16:29:11.725Z,10.15
2023-05-22T16:31:38.545Z,9.20
2023-05-22T16:34:05.839Z,9.20
2023-05-22T16:36:32.806Z,11.40
2023-05-22T16:38:59.485Z,8.68
2023-05-22T16:41:26.830Z,10.07
2023-05-22T16:43:53.823Z,11.00
2023-05-22T16:46:21.010Z,11.63
2023-05-22T16:48:47.832Z,11.05
2023-05-22T16:51:14.502Z,9.55
2023-05-22T16:53:43.914Z,8.63
2023-05-22T16:56:10.708Z,10.73
2023-05-22T16:58:37.433Z,7.93
2023-05-22T17:01:06.432Z,9.63
2023-05-22T17:03:34.007Z,8.50
2023-05-22T17:06:03.037Z,7.13
2023-05-22T17:08:30.073Z,6.63
2023-05-22T17:10:56.860Z,7.15
2023-05-22T17:13:23.732Z,9.48
2023-05-22T17:15:51.269Z,8.35
2023-05-22T17:18:22.102Z,8.18
2023-05-22T17:20:50.042Z,7.13
2023-05-22T17:23:17.259Z,7.20
2023-05-22T17:25:46.511Z,8.73
2023-05-22T17:28:14.701Z,7.82
2023-05-22T17:30:43.040Z,7.70
2023-05-22T17:33:10.920Z,7.45
2023-05-22T17:35:37.845Z,9.10
2023-05-22T17:38:04.988Z,7.68
2023-05-22T17:40:43.889Z,7.25
2023-05-22T17:43:12.945Z,6.00
2023-05-22T17:45:40.015Z,6.63
2023-05-22T17:48:07.782Z,6.25
2023-05-22T17:50:34.733Z,8.95
2023-05-22T17:53:01.606Z,7.22
2023-05-22T17:55:28.357Z,8.77
2023-05-22T17:57:55.262Z,5.80
2023-05-22T18:00:21.987Z,7.47
2023-05-22T18:02:48.833Z,7.13
2023-05-22T18:05:15.781Z,7.93
2023-05-22T18:07:43.831Z,6.30
2023-05-22T18:10:11.008Z,30.70
2023-05-22T18:12:38.656Z,6.88
2023-05-22T18:15:08.447Z,9.15
2023-05-22T18:17:35.301Z,5.88
2023-05-22T18:20:02.179Z,5.20
2023-05-22T18:22:28.933Z,6.13
2023-05-22T18:24:56.216Z,6.15
2023-05-22T18:27:23.123Z,6.25
2023-05-22T18:29:51.579Z,6.65
2023-05-22T18:32:18.520Z,5.97
2023-05-22T18:34:45.208Z,9.05
2023-05-22T18:37:12.009Z,7.88
2023-05-22T18:39:38.874Z,5.85
2023-05-22T18:42:05.798Z,7.32
2023-05-22T18:44:32.508Z,7.38
2023-05-22T18:46:59.314Z,6.72
2023-05-22T18:49:26.312Z,6.65
2023-05-22T18:51:53.165Z,8.23
2023-05-22T18:54:20.037Z,6.97
2023-05-22T18:56:46.789Z,6.32
2023-05-22T18:59:13.590Z,8.05
2023-05-22T19:01:40.432Z,7.63
2023-05-22T19:04:07.866Z,6.25
2023-05-22T19:06:35.562Z,6.97
2023-05-22T19:09:02.473Z,7.70
2023-05-22T19:11:29.360Z,7.25
2023-05-22T19:13:56.132Z,7.75
2023-05-22T19:16:22.967Z,5.55
2023-05-22T19:18:50.070Z,7.82
2023-05-22T19:21:16.938Z,6.03
2023-05-22T19:23:43.666Z,6.85
2023-05-22T19:26:10.425Z,8.20
2023-05-22T19:28:37.147Z,5.20
2023-05-22T19:31:03.994Z,6.43
2023-05-22T19:33:33.882Z,7.25
2023-05-22T19:36:02.103Z,6.70
2023-05-22T19:38:28.999Z,7.35
2023-05-22T19:40:55.773Z,9.57
2023-05-22T19:43:22.765Z,7.20
2023-05-22T19:45:49.506Z,6.53
2023-05-22T19:48:16.526Z,8.75
2023-05-22T19:50:43.553Z,6.28
2023-05-22T19:53:10.911Z,6.78
2023-05-22T19:55:37.741Z,8.50
2023-05-22T19:58:04.461Z,7.78
2023-05-22T20:00:32.081Z,6.47
2023-05-22T20:02:59.074Z,6.10
2023-05-22T20:05:26.138Z,8.02
2023-05-22T20:07:52.918Z,7.82
2023-05-22T20:10:19.908Z,10.68
2023-05-22T20:12:47.167Z,8.90
2023-05-22T20:15:14.886Z,8.40
2023-05-22T20:17:42.528Z,7.05
2023-05-22T20:20:09.808Z,8.27
2023-05-22T20:22:36.582Z,11.40
2023-05-22T20:25:05.214Z,10.18
2023-05-22T20:27:32.097Z,8.32
2023-05-22T20:30:01.337Z,9.45
2023-05-22T20:32:28.574Z,8.30
2023-05-22T20:34:55.424Z,8.68
2023-05-22T20:37:22.971Z,9.10
2023-05-22T20:39:50.213Z,8.02
2023-05-22T20:42:20.133Z,10.13
2023-05-22T20:44:47.407Z,8.65
2023-05-22T20:47:14.153Z,8.32
2023-05-22T20:49:41.167Z,8.43
2023-05-22T20:52:09.881Z,8.80
2023-05-22T20:54:36.681Z,8.75
2023-05-22T20:57:04.051Z,8.13
2023-05-22T20:59:30.928Z,8.70
2023-05-22T21:01:57.855Z,7.43
2023-05-22T21:04:25.905Z,9.18
2023-05-22T21:06:52.764Z,9.50
2023-05-22T21:09:19.640Z,7.85
2023-05-22T21:11:46.408Z,8.85
2023-05-22T21:14:13.992Z,8.20
2023-05-22T21:16:40.867Z,7.90
2023-05-22T21:19:07.780Z,9.00
2023-05-22T21:21:36.142Z,9.45
2023-05-22T21:24:03.319Z,11.48
2023-05-22T21:26:30.352Z,12.20
2023-05-22T21:28:57.247Z,11.10
2023-05-22T21:31:24.062Z,12.23
2023-05-22T21:33:51.075Z,13.07
2023-05-22T21:36:18.006Z,12.75
2023-05-22T21:38:45.227Z,14.90
2023-05-22T21:41:12.756Z,13.45
2023-05-22T21:43:39.622Z,11.05
2023-05-22T21:46:06.434Z,12.88
2023-05-22T21:48:33.674Z,12.18
2023-05-22T21:51:00.431Z,11.68
2023-05-22T21:53:27.225Z,10.65
2023-05-22T21:55:54.052Z,11.73
2023-05-22T21:58:21.016Z,12.45
2023-05-22T22:00:47.762Z,10.40
2023-05-22T22:03:15.001Z,10.77
2023-05-22T22:05:41.947Z,11.73
2023-05-22T22:08:08.779Z,10.35
2023-05-22T22:10:35.616Z,10.90
2023-05-22T22:13:02.637Z,7.20
2023-05-22T22:15:29.830Z,10.55
2023-05-22T22:18:02.208Z,11.10
2023-05-22T22:23:10.834Z,10.25
2023-05-22T22:25:38.953Z,11.35
2023-05-22T22:28:06.026Z,9.60
2023-05-22T22:30:32.924Z,10.93
2023-05-22T22:32:59.809Z,12.90
2023-05-22T22:35:26.628Z,13.98
2023-05-22T22:37:53.340Z,11.98
2023-05-22T22:40:20.033Z,13.20
2023-05-22T22:42:46.772Z,12.50
2023-05-22T22:45:14.543Z,11.65
2023-05-22T22:47:41.378Z,14.65
2023-05-22T22:50:09.852Z,12.57
2023-05-22T22:52:37.902Z,14.85
2023-05-22T22:55:09.036Z,14.55
2023-05-22T22:57:36.159Z,14.50
2023-05-22T23:00:03.698Z,13.02
2023-05-22T23:02:30.681Z,16.00
2023-05-22T23:04:57.488Z,14.57
2023-05-22T23:07:24.639Z,14.20
2023-05-22T23:09:51.383Z,14.60
2023-05-22T23:12:18.149Z,17.05
2023-05-22T23:14:44.940Z,19.10
2023-05-22T23:17:11.729Z,14.82
2023-05-22T23:19:38.483Z,15.85
2023-05-22T23:22:05.790Z,15.50
2023-05-22T23:24:33.959Z,14.45
2023-05-22T23:27:01.879Z,16.27
2023-05-22T23:29:28.670Z,15.05
2023-05-22T23:31:55.617Z,16.17
2023-05-22T23:34:22.506Z,11.82
2023-05-22T23:36:49.297Z,14.05
2023-05-22T23:39:16.128Z,13.38
2023-05-22T23:41:42.825Z,12.90
2023-05-22T23:44:09.781Z,13.18
2023-05-22T23:46:37.590Z,13.88
2023-05-22T23:49:04.449Z,14.60
2023-05-22T23:51:31.348Z,16.52
2023-05-22T23:53:58.047Z,16.75
2023-05-22T23:56:24.920Z,16.38
2023-05-22T23:58:51.673Z,22.05
